createdAt,value
2022-10-18T00:01:06.113Z,18.35
2022-10-18T00:03:34.871Z,15.40
2022-10-18T00:06:03.262Z,16.40
2022-10-18T00:08:31.298Z,16.77
2022-10-18T00:10:58.808Z,24.60
2022-10-18T00:13:26.757Z,15.93
2022-10-18T00:15:56.372Z,18.27
2022-10-18T00:18:24.408Z,14.10
2022-10-18T00:21:06.494Z,20.75
2022-10-18T00:23:35.972Z,18.38
2022-10-18T00:26:14.844Z,14.75
2022-10-18T00:28:42.968Z,14.15
2022-10-18T00:31:21.602Z,18.85
2022-10-18T00:33:52.148Z,15.63
2022-10-18T00:36:20.725Z,19.73
2022-10-18T00:38:49.238Z,24.63
2022-10-18T00:41:21.792Z,16.27
2022-10-18T00:44:28.210Z,20.65
2022-10-18T00:47:02.473Z,14.88
2022-10-18T00:49:36.040Z,18.38
2022-10-18T00:52:22.718Z,20.50
2022-10-18T00:54:52.363Z,13.45
2022-10-18T00:57:19.101Z,18.05
2022-10-18T00:59:47.544Z,16.67
2022-10-18T01:02:18.311Z,16.02
2022-10-18T01:04:47.440Z,19.05
2022-10-18T01:07:42.440Z,18.02
2022-10-18T01:10:34.990Z,18.25
2022-10-18T01:13:29.158Z,15.90
2022-10-18T01:16:45.118Z,13.05
2022-10-18T01:19:38.927Z,12.07
2022-10-18T01:22:50.312Z,18.73
2022-10-18T01:26:01.687Z,16.02
2022-10-18T01:29:08.050Z,15.75
2022-10-18T01:31:48.105Z,17.50
2022-10-18T01:34:17.998Z,15.68
2022-10-18T01:36:51.057Z,16.63
2022-10-18T01:39:23.690Z,16.77
2022-10-18T01:41:53.972Z,13.18
2022-10-18T01:44:26.596Z,14.98
2022-10-18T01:46:57.224Z,12.65
2022-10-18T01:49:25.781Z,17.45
2022-10-18T01:51:54.150Z,15.93
2022-10-18T01:54:28.095Z,15.77
2022-10-18T01:57:15.743Z,20.17
2022-10-18T02:00:05.126Z,17.45
2022-10-18T02:02:48.516Z,15.73
2022-10-18T02:05:42.634Z,19.02
2022-10-18T02:08:28.598Z,16.50
2022-10-18T02:11:06.929Z,11.57
2022-10-18T02:13:48.284Z,14.98
2022-10-18T02:16:22.960Z,9.02
2022-10-18T02:18:58.862Z,13.85
2022-10-18T02:21:28.088Z,11.30
2022-10-18T02:23:58.549Z,14.82
2022-10-18T02:26:25.562Z,21.88
2022-10-18T02:28:53.506Z,16.00
2022-10-18T02:31:44.444Z,18.92
2022-10-18T02:34:24.739Z,14.88
2022-10-18T02:36:58.776Z,13.50
2022-10-18T02:39:35.852Z,12.32
2022-10-18T02:42:10.913Z,13.07
2022-10-18T02:44:38.631Z,22.13
2022-10-18T02:47:08.300Z,13.85
2022-10-18T02:49:36.302Z,14.40
2022-10-18T02:52:04.439Z,13.75
2022-10-18T02:54:31.018Z,13.90
2022-10-18T02:56:58.897Z,10.93
2022-10-18T02:59:26.866Z,12.25
2022-10-18T03:01:54.879Z,12.35
2022-10-18T03:04:23.032Z,12.73
2022-10-18T03:06:49.655Z,16.80
2022-10-18T03:09:16.542Z,15.15
2022-10-18T03:11:44.373Z,11.18
2022-10-18T03:14:12.449Z,14.65
2022-10-18T03:16:40.800Z,15.55
2022-10-18T03:19:08.491Z,11.57
2022-10-18T03:21:36.529Z,12.23
2022-10-18T03:24:04.750Z,10.43
2022-10-18T03:26:32.633Z,12.55
2022-10-18T03:29:00.634Z,10.95
2022-10-18T03:31:28.702Z,15.00
2022-10-18T03:33:56.921Z,15.70
2022-10-18T03:36:24.672Z,14.25
2022-10-18T03:38:52.503Z,12.55
2022-10-18T03:41:20.921Z,20.88
2022-10-18T03:43:48.839Z,11.52
2022-10-18T03:46:15.487Z,14.02
2022-10-18T03:48:42.124Z,16.73
2022-10-18T03:51:10.315Z,17.88
2022-10-18T03:53:39.087Z,10.85
2022-10-18T03:56:07.118Z,11.32
2022-10-18T04:01:07.104Z,14.30
2022-10-18T04:03:33.662Z,10.15
2022-10-18T04:06:00.840Z,11.93
2022-10-18T04:08:27.496Z,11.23
2022-10-18T04:10:54.140Z,15.60
2022-10-18T04:13:21.852Z,11.55
2022-10-18T04:15:49.880Z,13.27
2022-10-18T04:18:17.746Z,12.60
2022-10-18T04:20:45.489Z,10.27
2022-10-18T04:23:13.318Z,12.35
2022-10-18T04:25:41.179Z,12.00
2022-10-18T04:28:08.819Z,16.88
2022-10-18T04:30:36.696Z,10.05
2022-10-18T04:33:04.495Z,11.25
2022-10-18T04:35:32.497Z,19.50
2022-10-18T04:38:03.033Z,9.82
2022-10-18T04:40:31.037Z,16.80
2022-10-18T04:42:58.953Z,11.25
2022-10-18T04:45:26.684Z,15.80
2022-10-18T04:47:54.552Z,13.10
2022-10-18T04:50:22.362Z,18.33
2022-10-18T04:55:23.357Z,9.93
2022-10-18T04:57:52.454Z,10.00
2022-10-18T05:00:20.293Z,14.52
2022-10-18T05:02:50.412Z,12.35
2022-10-18T05:05:18.450Z,9.10
2022-10-18T05:07:46.347Z,11.25
2022-10-18T05:10:14.033Z,13.05
2022-10-18T05:12:43.803Z,13.38
2022-10-18T05:15:11.501Z,13.45
2022-10-18T05:17:40.655Z,11.05
2022-10-18T05:20:11.482Z,17.30
2022-10-18T05:22:39.555Z,7.75
2022-10-18T05:25:10.230Z,16.13
2022-10-18T05:27:38.406Z,10.75
2022-10-18T05:30:06.777Z,13.07
2022-10-18T05:32:36.514Z,11.40
2022-10-18T05:35:04.689Z,10.90
2022-10-18T05:37:32.823Z,20.95
2022-10-18T05:39:59.763Z,12.48
2022-10-18T05:42:27.591Z,11.77
2022-10-18T05:44:55.376Z,17.80
2022-10-18T05:47:23.289Z,14.20
2022-10-18T05:49:49.982Z,15.73
2022-10-18T05:52:17.280Z,19.50
2022-10-18T05:54:43.936Z,9.38
2022-10-18T05:57:10.535Z,21.70
2022-10-18T05:59:37.112Z,16.13
2022-10-18T06:02:03.790Z,14.98
2022-10-18T06:04:30.417Z,12.32
2022-10-18T06:06:57.101Z,13.85
2022-10-18T06:09:23.743Z,19.67
2022-10-18T06:11:50.321Z,16.92
2022-10-18T06:14:16.872Z,13.70
2022-10-18T06:16:43.435Z,18.45
2022-10-18T06:19:10.400Z,13.38
2022-10-18T06:21:37.026Z,8.88
2022-10-18T06:24:03.752Z,12.52
2022-10-18T06:26:30.376Z,17.15
2022-10-18T06:28:56.992Z,8.80
2022-10-18T06:31:23.756Z,12.25
2022-10-18T06:33:50.633Z,12.90
2022-10-18T06:36:19.841Z,17.10
2022-10-18T06:38:46.517Z,12.13
2022-10-18T06:41:13.411Z,15.52
2022-10-18T06:43:40.316Z,12.50
2022-10-18T06:46:08.291Z,13.63
2022-10-18T06:48:36.597Z,11.40
2022-10-18T06:51:06.149Z,22.92
2022-10-18T06:53:40.800Z,9.52
2022-10-18T06:56:12.802Z,12.20
2022-10-18T06:58:40.579Z,13.10
2022-10-18T07:01:19.903Z,10.13
2022-10-18T07:03:48.007Z,10.05
2022-10-18T07:06:17.435Z,12.82
2022-10-18T07:08:44.878Z,12.65
2022-10-18T07:11:17.561Z,12.07
2022-10-18T07:13:44.525Z,14.43
2022-10-18T07:16:17.276Z,11.95
2022-10-18T07:18:50.840Z,15.07
2022-10-18T07:21:20.262Z,15.48
2022-10-18T07:23:47.906Z,13.75
2022-10-18T07:26:27.183Z,13.43
2022-10-18T07:29:00.520Z,9.77
2022-10-18T07:31:28.788Z,15.68
2022-10-18T07:33:55.548Z,12.05
2022-10-18T07:36:24.722Z,8.40
2022-10-18T07:38:54.564Z,11.07
2022-10-18T07:41:23.336Z,11.10
2022-10-18T07:43:52.734Z,8.70
2022-10-18T07:46:22.103Z,10.07
2022-10-18T07:48:50.418Z,12.13
2022-10-18T07:51:20.268Z,14.52
2022-10-18T07:53:48.510Z,11.30
2022-10-18T07:56:21.015Z,12.10
2022-10-18T07:58:55.289Z,13.27
2022-10-18T08:01:24.796Z,12.40
2022-10-18T08:03:53.082Z,6.88
2022-10-18T08:06:22.915Z,8.10
2022-10-18T08:08:51.644Z,5.90
2022-10-18T08:11:23.068Z,10.30
2022-10-18T08:13:52.829Z,6.43
2022-10-18T08:16:29.264Z,13.95
2022-10-18T08:19:00.142Z,11.45
2022-10-18T08:21:28.266Z,7.63
2022-10-18T08:23:56.034Z,8.02
2022-10-18T08:26:23.851Z,6.88
2022-10-18T08:29:03.636Z,10.10
2022-10-18T08:31:37.088Z,8.85
2022-10-18T08:34:03.666Z,7.95
2022-10-18T08:36:30.249Z,11.90
2022-10-18T08:38:56.945Z,7.30
2022-10-18T08:41:47.297Z,7.97
2022-10-18T08:44:32.156Z,7.50
2022-10-18T08:47:04.322Z,9.32
2022-10-18T08:49:46.277Z,6.90
2022-10-18T08:52:37.198Z,9.20
2022-10-18T08:55:12.519Z,7.00
2022-10-18T08:57:39.172Z,9.50
2022-10-18T09:00:16.200Z,9.05
2022-10-18T09:02:48.611Z,8.63
2022-10-18T09:05:25.144Z,6.65
2022-10-18T09:08:11.583Z,13.32
2022-10-18T09:10:52.072Z,4.88
2022-10-18T09:13:31.744Z,6.45
2022-10-18T09:16:04.980Z,8.38
2022-10-18T09:19:08.164Z,9.07
2022-10-18T09:21:40.698Z,8.15
2022-10-18T09:24:54.558Z,7.00
2022-10-18T09:27:28.925Z,7.53
2022-10-18T09:30:05.361Z,8.20
2022-10-18T09:32:50.185Z,9.40
2022-10-18T09:35:27.374Z,5.78
2022-10-18T09:38:02.225Z,4.82
2022-10-18T09:40:33.160Z,12.40
2022-10-18T09:43:17.696Z,10.20
2022-10-18T09:45:45.884Z,8.82
2022-10-18T09:48:15.072Z,5.63
2022-10-18T09:50:48.969Z,7.13
2022-10-18T09:53:37.553Z,4.78
2022-10-18T09:56:15.095Z,8.02
2022-10-18T09:58:51.280Z,6.03
2022-10-18T10:01:30.360Z,6.60
2022-10-18T10:03:56.965Z,6.63
2022-10-18T10:06:31.998Z,9.00
2022-10-18T10:09:07.235Z,6.57
2022-10-18T10:11:40.353Z,15.13
2022-10-18T10:16:55.379Z,7.05
2022-10-18T10:19:35.880Z,12.25
2022-10-18T10:22:14.260Z,7.18
2022-10-18T10:24:53.747Z,9.10
2022-10-18T10:27:34.787Z,5.78
2022-10-18T10:30:07.130Z,9.57
2022-10-18T10:32:46.986Z,6.03
2022-10-18T10:35:53.661Z,6.10
2022-10-18T10:38:26.096Z,4.07
2022-10-18T10:40:53.715Z,7.53
2022-10-18T10:43:43.283Z,7.97
2022-10-18T10:46:11.759Z,7.25
2022-10-18T10:48:49.962Z,10.57
2022-10-18T10:51:28.478Z,8.57
2022-10-18T10:54:04.414Z,12.18
2022-10-18T10:56:37.588Z,6.95
2022-10-18T10:59:14.655Z,5.82
2022-10-18T11:01:41.916Z,11.90
2022-10-18T11:04:30.613Z,7.25
2022-10-18T11:07:08.992Z,5.28
2022-10-18T11:09:51.065Z,6.72
2022-10-18T11:12:26.931Z,11.52
2022-10-18T11:15:10.018Z,6.38
2022-10-18T11:17:45.267Z,5.30
2022-10-18T11:20:17.961Z,5.97
2022-10-18T11:22:54.198Z,11.30
2022-10-18T11:25:23.210Z,10.20
2022-10-18T11:28:06.427Z,9.98
2022-10-18T11:30:53.554Z,8.20
2022-10-18T11:34:09.378Z,9.27
2022-10-18T11:36:56.208Z,6.65
2022-10-18T11:40:07.337Z,6.53
2022-10-18T11:43:01.050Z,6.65
2022-10-18T11:45:41.911Z,4.88
2022-10-18T11:48:24.124Z,8.27
2022-10-18T11:51:10.370Z,8.15
2022-10-18T11:54:26.079Z,6.72
2022-10-18T11:57:18.609Z,7.35
2022-10-18T12:00:03.900Z,7.97
2022-10-18T12:03:01.398Z,6.97
2022-10-18T12:05:29.615Z,6.53
2022-10-18T12:08:07.205Z,7.38
2022-10-18T12:10:46.231Z,7.18
2022-10-18T12:13:39.063Z,10.07
2022-10-18T12:16:07.944Z,7.32
2022-10-18T12:18:36.712Z,6.03
2022-10-18T12:21:05.550Z,8.48
2022-10-18T12:23:43.423Z,5.75
2022-10-18T12:26:11.576Z,9.10
2022-10-18T12:28:58.230Z,4.40
2022-10-18T12:31:28.357Z,5.22
2022-10-18T12:34:00.384Z,6.95
2022-10-18T12:36:48.159Z,5.13
2022-10-18T12:42:47.612Z,7.95
2022-10-18T12:45:20.234Z,6.40
2022-10-18T12:48:29.345Z,4.20
2022-10-18T12:51:20.731Z,10.43
2022-10-18T12:54:17.389Z,6.47
2022-10-18T12:56:46.828Z,12.68
2022-10-18T12:59:16.315Z,11.85
2022-10-18T13:01:54.811Z,10.50
2022-10-18T13:04:27.174Z,7.80
2022-10-18T13:06:59.937Z,6.38
2022-10-18T13:09:28.433Z,8.32
2022-10-18T13:12:19.360Z,9.73
2022-10-18T13:15:12.711Z,6.57
2022-10-18T13:21:01.138Z,8.80
2022-10-18T13:24:04.559Z,5.90
2022-10-18T13:29:54.551Z,13.30
2022-10-18T13:32:34.238Z,7.70
2022-10-18T13:35:01.362Z,6.93
2022-10-18T13:37:30.241Z,9.00
2022-10-18T13:40:22.222Z,13.10
2022-10-18T13:42:48.957Z,6.80
2022-10-18T13:45:33.911Z,7.63
2022-10-18T13:48:35.768Z,5.88
2022-10-18T13:54:39.299Z,5.65
2022-10-18T13:57:16.956Z,6.20
2022-10-18T14:00:11.280Z,6.75
2022-10-18T14:02:59.385Z,10.23
2022-10-18T14:05:47.295Z,5.95
2022-10-18T14:08:20.510Z,11.07
2022-10-18T14:11:19.255Z,6.95
2022-10-18T14:13:54.487Z,9.95
2022-10-18T14:16:32.814Z,4.70
2022-10-18T14:19:13.790Z,7.10
2022-10-18T14:21:47.864Z,8.05
2022-10-18T14:24:20.432Z,6.00
2022-10-18T14:26:47.353Z,5.78
2022-10-18T14:29:20.266Z,6.10
2022-10-18T14:31:54.659Z,8.18
2022-10-18T14:34:22.187Z,12.32
2022-10-18T14:36:49.954Z,7.20
2022-10-18T14:39:27.495Z,10.73
2022-10-18T14:41:56.000Z,7.32
2022-10-18T14:44:28.659Z,12.32
2022-10-18T14:47:04.100Z,5.60
2022-10-18T14:49:31.030Z,8.63
2022-10-18T14:52:01.437Z,6.45
2022-10-18T14:54:37.842Z,8.63
2022-10-18T14:57:07.053Z,11.23
2022-10-18T14:59:57.164Z,6.18
2022-10-18T15:02:29.262Z,8.40
2022-10-18T15:05:06.437Z,13.52
2022-10-18T15:07:33.895Z,8.38
2022-10-18T15:10:04.027Z,7.97
2022-10-18T15:12:41.024Z,9.90
2022-10-18T15:15:24.402Z,10.93
2022-10-18T15:17:52.028Z,10.95
2022-10-18T15:20:33.653Z,10.57
2022-10-18T15:25:48.293Z,12.85
2022-10-18T15:28:32.989Z,12.07
2022-10-18T15:31:01.830Z,13.25
2022-10-18T15:33:34.515Z,14.15
2022-10-18T15:36:12.665Z,12.93
2022-10-18T15:38:39.516Z,14.25
2022-10-18T15:41:43.777Z,11.68
2022-10-18T15:44:34.638Z,19.88
2022-10-18T15:47:38.328Z,19.15
2022-10-18T15:50:05.163Z,13.52
2022-10-18T15:52:42.606Z,22.65
2022-10-18T15:55:31.267Z,14.43
2022-10-18T15:58:17.627Z,23.77
2022-10-18T16:00:45.634Z,21.60
2022-10-18T16:03:20.359Z,17.92
2022-10-18T16:05:47.215Z,16.00
2022-10-18T16:08:23.086Z,26.00
2022-10-18T16:10:49.940Z,16.88
2022-10-18T16:13:16.741Z,21.67
2022-10-18T16:15:43.436Z,17.27
2022-10-18T16:18:20.290Z,19.73
2022-10-18T16:20:48.221Z,22.33
2022-10-18T16:23:32.992Z,14.65
2022-10-18T16:25:59.539Z,14.55
2022-10-18T16:28:26.212Z,13.32
2022-10-18T16:31:03.506Z,11.88
2022-10-18T16:33:30.998Z,11.32
2022-10-18T16:35:57.968Z,10.02
2022-10-18T16:38:35.242Z,11.52
2022-10-18T16:41:04.760Z,14.43
2022-10-18T16:43:31.957Z,11.23
2022-10-18T16:45:58.658Z,11.18
2022-10-18T16:48:27.629Z,17.00
2022-10-18T16:50:55.943Z,9.57
2022-10-18T16:53:27.878Z,19.02
2022-10-18T16:56:00.746Z,10.13
2022-10-18T16:58:29.128Z,16.27
2022-10-18T17:00:56.664Z,19.73
2022-10-18T17:03:24.325Z,19.98
2022-10-18T17:05:50.918Z,21.55
2022-10-18T17:08:20.570Z,19.38
2022-10-18T17:10:49.793Z,25.92
2022-10-18T17:13:16.869Z,25.35
2022-10-18T17:15:43.985Z,21.02
2022-10-18T17:18:16.751Z,29.45
2022-10-18T17:20:44.203Z,35.13
2022-10-18T17:23:11.191Z,21.92
2022-10-18T17:25:46.452Z,25.52
2022-10-18T17:28:24.568Z,23.67
2022-10-18T17:30:51.698Z,22.08
2022-10-18T17:33:18.523Z,24.35
2022-10-18T17:35:45.306Z,22.23
2022-10-18T17:38:12.001Z,25.52
2022-10-18T17:40:42.622Z,23.95
2022-10-18T17:43:09.349Z,21.73
2022-10-18T17:45:36.014Z,34.67
2022-10-18T17:48:02.637Z,25.17
2022-10-18T17:50:29.248Z,25.65
2022-10-18T17:52:55.961Z,35.00
2022-10-18T17:55:22.555Z,29.58
2022-10-18T17:57:49.157Z,22.70
2022-10-18T18:00:16.330Z,26.48
2022-10-18T18:02:43.361Z,30.65
2022-10-18T18:05:12.676Z,23.50
2022-10-18T18:07:39.320Z,23.00
2022-10-18T18:10:08.425Z,26.00
2022-10-18T18:12:36.500Z,29.40
2022-10-18T18:15:04.780Z,20.92
2022-10-18T18:17:34.399Z,16.75
2022-10-18T18:20:07.386Z,16.92
2022-10-18T18:22:36.997Z,17.92
2022-10-18T18:25:09.723Z,21.77
2022-10-18T18:27:39.091Z,35.00
2022-10-18T18:30:08.215Z,19.25
2022-10-18T18:32:36.100Z,20.60
2022-10-18T18:35:04.277Z,26.25
2022-10-18T18:37:35.488Z,22.10
2022-10-18T18:40:03.708Z,25.73
2022-10-18T18:42:32.577Z,25.17
2022-10-18T18:45:00.812Z,25.45
2022-10-18T18:51:16.120Z,27.55
2022-10-18T18:53:45.370Z,21.15
2022-10-18T18:56:16.371Z,25.83
2022-10-18T18:58:46.280Z,27.63
2022-10-18T19:01:22.251Z,22.48
2022-10-18T19:03:52.505Z,31.05
2022-10-18T19:06:22.926Z,26.00
2022-10-18T19:08:50.049Z,26.58
2022-10-18T19:11:21.484Z,27.95
2022-10-18T19:13:50.197Z,27.08
2022-10-18T19:16:31.821Z,31.88
2022-10-18T19:19:06.141Z,37.70
2022-10-18T19:21:39.559Z,29.13
2022-10-18T19:24:07.834Z,29.00
2022-10-18T19:26:48.578Z,29.75
2022-10-18T19:29:21.501Z,32.03
2022-10-18T19:31:51.944Z,26.10
2022-10-18T19:34:22.276Z,33.38
2022-10-18T19:36:51.075Z,32.58
2022-10-18T19:39:21.633Z,34.40
2022-10-18T19:41:56.312Z,29.20
2022-10-18T19:44:25.750Z,29.15
2022-10-18T19:46:52.590Z,25.00
2022-10-18T19:49:20.733Z,28.88
2022-10-18T19:51:48.965Z,25.60
2022-10-18T19:54:17.060Z,29.63
2022-10-18T19:56:45.272Z,24.75
2022-10-18T19:59:15.208Z,27.25
2022-10-18T20:01:42.211Z,27.48
2022-10-18T20:04:11.698Z,30.27
2022-10-18T20:06:39.925Z,17.17
2022-10-18T20:09:10.402Z,24.75
2022-10-18T20:11:37.920Z,27.73
2022-10-18T20:14:06.449Z,20.58
2022-10-18T20:16:34.324Z,23.55
2022-10-18T20:19:04.540Z,19.38
2022-10-18T20:21:35.925Z,16.48
2022-10-18T20:24:05.959Z,23.15
2022-10-18T20:26:35.900Z,21.33
2022-10-18T20:29:04.741Z,21.48
2022-10-18T20:31:41.605Z,18.33
2022-10-18T20:34:11.966Z,19.75
2022-10-18T20:36:40.460Z,20.60
2022-10-18T20:39:12.024Z,19.75
2022-10-18T20:41:41.366Z,30.45
2022-10-18T20:44:13.480Z,20.65
2022-10-18T20:46:41.780Z,23.33
2022-10-18T20:49:10.620Z,20.65
2022-10-18T20:51:37.423Z,21.88
2022-10-18T20:56:38.916Z,18.85
2022-10-18T20:59:09.409Z,21.33
2022-10-18T21:01:38.959Z,16.85
2022-10-18T21:04:09.759Z,16.17
2022-10-18T21:06:42.253Z,20.63
2022-10-18T21:09:12.133Z,20.90
2022-10-18T21:11:42.006Z,18.85
2022-10-18T21:14:13.151Z,20.50
2022-10-18T21:16:41.582Z,23.70
2022-10-18T21:19:15.219Z,20.35
2022-10-18T21:21:44.056Z,18.83
2022-10-18T21:24:12.201Z,19.75
2022-10-18T21:26:39.002Z,13.45
2022-10-18T21:29:06.600Z,15.13
2022-10-18T21:31:35.742Z,16.92
2022-10-18T21:34:05.830Z,25.15
2022-10-18T21:36:34.930Z,23.63
2022-10-18T21:39:03.206Z,21.80
2022-10-18T21:41:31.030Z,19.98
2022-10-18T21:43:57.690Z,17.02
2022-10-18T21:46:26.949Z,16.05
2022-10-18T21:48:55.532Z,15.18
2022-10-18T21:51:24.646Z,13.80
2022-10-18T21:53:53.958Z,18.88
2022-10-18T21:56:26.761Z,16.73
2022-10-18T21:58:54.321Z,21.67
2022-10-18T22:01:26.675Z,16.02
2022-10-18T22:03:55.734Z,26.42
2022-10-18T22:06:23.288Z,21.85
2022-10-18T22:08:56.083Z,15.40
2022-10-18T22:11:25.651Z,20.02
2022-10-18T22:13:53.750Z,13.52
2022-10-18T22:16:20.966Z,12.23
2022-10-18T22:22:44.411Z,16.27
2022-10-18T22:25:11.033Z,15.65
2022-10-18T22:27:38.595Z,14.93
2022-10-18T22:30:05.702Z,15.27
2022-10-18T22:32:32.336Z,17.00
2022-10-18T22:34:59.232Z,17.55
2022-10-18T22:37:25.840Z,17.02
2022-10-18T22:39:52.412Z,14.40
2022-10-18T22:42:18.969Z,26.17
2022-10-18T22:44:45.604Z,15.57
2022-10-18T22:47:12.142Z,23.35
2022-10-18T22:50:16.078Z,20.50
2022-10-18T22:52:42.649Z,18.52
2022-10-18T22:55:09.482Z,19.73
2022-10-18T22:57:36.118Z,23.95
2022-10-18T23:00:03.767Z,21.35
2022-10-18T23:02:30.735Z,23.92
2022-10-18T23:04:57.428Z,21.77
2022-10-18T23:07:23.977Z,16.83
2022-10-18T23:09:50.634Z,19.05
2022-10-18T23:12:17.231Z,21.23
2022-10-18T23:14:44.660Z,26.73
2022-10-18T23:17:11.406Z,19.90
2022-10-18T23:19:38.507Z,23.08
2022-10-18T23:22:05.164Z,25.70
2022-10-18T23:24:31.981Z,22.13
2022-10-18T23:26:58.533Z,20.15
2022-10-18T23:29:25.171Z,20.52
2022-10-18T23:31:51.713Z,27.92
2022-10-18T23:34:18.296Z,32.90
2022-10-18T23:39:16.413Z,28.80
2022-10-18T23:41:44.280Z,25.30
2022-10-18T23:44:12.052Z,26.58
2022-10-18T23:46:41.752Z,26.98
2022-10-18T23:49:09.539Z,27.05
2022-10-18T23:51:37.653Z,24.95
2022-10-18T23:54:04.253Z,19.15
2022-10-18T23:56:32.514Z,24.27
2022-10-18T23:59:00.432Z,25.05
